Time;durP1;ratioP1;P1;durP2;ratioP2;P2;SDS_P1;SDS_P2;PMS_P1;PMS_P2;Temp;Humidity;BMP_temperature;BMP_pressure;BME280_temperature;BME280_humidity;BME280_pressure;Samples;Min_cycle;Max_cycle;Signal;HPM_P1;HPM_P2
2023/12/19 00:00:40;;;;;;;21.83;10.88;;;5.40;99.90;;;;;;5039265;28;20181;-50
2023/12/19 00:03:05;;;;;;;23.23;11.63;;;5.40;99.90;;;;;;5040991;28;20475;-55
2023/12/19 00:05:31;;;;;;;22.38;11.65;;;5.30;99.90;;;;;;5041214;28;20085;-52
2023/12/19 00:07:57;;;;;;;21.77;10.82;;;5.30;99.90;;;;;;5040671;28;21126;-57
2023/12/19 00:10:22;;;;;;;23.30;11.38;;;5.40;99.90;;;;;;5039171;28;20029;-58
2023/12/19 00:12:48;;;;;;;22.55;11.60;;;5.40;99.90;;;;;;5041071;28;20032;-60
2023/12/19 00:15:14;;;;;;;24.48;10.55;;;5.30;99.90;;;;;;5040155;28;20111;-52
2023/12/19 15:31:11;;;;;;;19.75;7.53;;;8.50;1.00;;;;;;5123127;27;20334;-52
2023/12/19 15:33:39;;;;;;;24.45;9.05;;;8.40;1.00;;;;;;5123522;28;20030;-54
2023/12/19 15:36:05;;;;;;;26.38;10.98;;;8.30;1.00;;;;;;5105379;28;20578;-53
2023/12/19 15:38:32;;;;;;;23.42;10.77;;;8.20;1.00;;;;;;5124011;28;20039;-55
2023/12/19 15:40:57;;;;;;;28.33;10.00;;;8.20;1.00;;;;;;5123899;28;20130;-59
2023/12/19 15:43:23;;;;;;;27.42;9.48;;;8.30;1.00;;;;;;5123530;28;20110;-56
2023/12/19 15:45:49;;;;;;;21.88;8.75;;;8.20;1.00;;;;;;5123557;28;20024;-50
2023/12/19 15:48:15;;;;;;;22.75;8.38;;;8.30;1.00;;;;;;5123669;28;20030;-54
2023/12/19 15:50:42;;;;;;;22.95;8.40;;;8.30;1.00;;;;;;5123431;28;20179;-54
2023/12/19 15:53:10;;;;;;;20.80;7.32;;;8.30;1.00;;;;;;5104986;28;20034;-64
2023/12/19 15:55:36;;;;;;;14.48;7.65;;;8.40;1.00;;;;;;5123355;28;20021;-59
2023/12/19 15:58:02;;;;;;;16.95;7.10;;;8.40;1.00;;;;;;5123444;28;20024;-61
2023/12/19 16:00:28;;;;;;;12.18;6.53;;;8.60;1.00;;;;;;5122609;28;20030;-62
2023/12/19 16:02:54;;;;;;;14.25;5.28;;;8.60;1.00;;;;;;5123198;28;20030;-50
2023/12/19 16:05:19;;;;;;;12.68;5.95;;;8.60;1.00;;;;;;5122917;28;20211;-50
2023/12/19 16:07:45;;;;;;;12.80;5.53;;;8.60;1.00;;;;;;5122386;28;20478;-53
2023/12/19 16:10:12;;;;;;;13.48;7.03;;;8.60;1.00;;;;;;5122651;28;20378;-62
2023/12/19 16:12:38;;;;;;;13.07;6.78;;;8.50;1.00;;;;;;5122028;28;20161;-56
2023/12/19 16:15:05;;;;;;;16.98;7.95;;;8.50;1.00;;;;;;5122778;28;20039;-54
2023/12/19 16:17:30;;;;;;;16.80;7.17;;;8.50;1.00;;;;;;5123079;28;20065;-53
2023/12/19 16:19:56;;;;;;;16.13;6.97;;;8.40;1.00;;;;;;5123533;28;20065;-60
2023/12/19 16:22:22;;;;;;;17.70;7.78;;;8.40;1.00;;;;;;5123668;28;20039;-56
2023/12/19 16:24:52;;;;;;;12.80;6.03;;;8.40;1.00;;;;;;5122674;28;20494;-60
2023/12/19 16:27:21;;;;;;;15.60;7.43;;;8.40;1.00;;;;;;5123820;28;20062;-51
2023/12/19 16:29:50;;;;;;;15.18;6.60;;;8.50;1.00;;;;;;5123114;28;20463;-55
2023/12/19 16:32:16;;;;;;;18.05;7.22;;;8.40;1.00;;;;;;5122406;28;20096;-59
2023/12/19 16:34:41;;;;;;;13.75;6.85;;;8.50;1.00;;;;;;5121949;28;20482;-53
2023/12/19 16:37:07;;;;;;;13.15;6.30;;;8.60;1.00;;;;;;5121643;28;20028;-55
2023/12/19 16:39:32;;;;;;;14.38;6.47;;;8.60;1.00;;;;;;5120411;28;20026;-58
2023/12/19 16:41:59;;;;;;;14.20;6.35;;;8.50;1.00;;;;;;5109480;28;20590;-58
2023/12/19 16:44:27;;;;;;;13.90;6.05;;;8.60;1.00;;;;;;5106433;28;20509;-57
2023/12/19 16:46:53;;;;;;;13.77;6.40;;;8.60;1.00;;;;;;5106420;28;20317;-53
2023/12/19 16:49:19;;;;;;;12.93;6.57;;;8.60;1.00;;;;;;5106155;28;20135;-55
2023/12/19 16:51:45;;;;;;;15.05;6.20;;;8.60;1.00;;;;;;5107231;28;20122;-52
2023/12/19 16:54:11;;;;;;;12.13;6.47;;;8.60;1.00;;;;;;5107782;28;20424;-54
2023/12/19 16:56:36;;;;;;;14.20;7.05;;;8.50;1.00;;;;;;5109018;28;20460;-56
2023/12/19 16:59:02;;;;;;;20.73;6.70;;;8.50;1.00;;;;;;5109260;28;20542;-49
2023/12/19 17:01:27;;;;;;;15.52;7.68;;;8.50;1.00;;;;;;5109261;28;20023;-57
2023/12/19 17:03:53;;;;;;;14.27;6.13;;;8.50;1.00;;;;;;5108781;28;20019;-58
2023/12/19 17:06:19;;;;;;;13.45;6.13;;;8.50;1.00;;;;;;5108841;28;20034;-54
2023/12/19 17:08:46;;;;;;;15.75;6.78;;;8.40;1.00;;;;;;5108221;28;20066;-60
2023/12/19 17:11:12;;;;;;;15.13;6.80;;;8.50;1.00;;;;;;5090049;28;20086;-58
2023/12/19 17:13:38;;;;;;;18.73;8.70;;;8.40;1.00;;;;;;5089803;28;20487;-56
2023/12/19 17:16:04;;;;;;;18.88;8.55;;;8.20;1.00;;;;;;5108224;28;20337;-59
2023/12/19 17:18:30;;;;;;;23.55;8.10;;;8.20;1.00;;;;;;5108525;28;20541;-56
2023/12/19 17:20:56;;;;;;;19.42;9.05;;;8.20;1.00;;;;;;5108508;28;20127;-57
2023/12/19 17:23:22;;;;;;;17.42;7.70;;;8.10;1.00;;;;;;5108334;28;20139;-59
2023/12/19 17:25:47;;;;;;;19.48;8.80;;;8.10;1.00;;;;;;5108564;28;20103;-57
2023/12/19 17:28:13;;;;;;;21.52;8.50;;;8.10;1.00;;;;;;5108482;28;20564;-57
2023/12/19 17:30:39;;;;;;;23.10;10.95;;;8.10;1.00;;;;;;5087065;28;20059;-59
2023/12/19 17:33:21;;;;;;;25.40;9.40;;;8.00;1.00;;;;;;5088467;28;20016;-58
2023/12/19 17:35:47;;;;;;;25.45;12.05;;;8.10;1.00;;;;;;5087547;28;20043;-53
2023/12/19 17:38:14;;;;;;;23.52;10.18;;;8.00;1.00;;;;;;5088216;28;20032;-52
2023/12/19 17:40:40;;;;;;;24.85;9.77;;;8.10;1.00;;;;;;5088163;28;20043;-52
2023/12/19 17:43:05;;;;;;;20.52;9.35;;;8.10;1.00;;;;;;5087833;28;20031;-53
2023/12/19 17:45:31;;;;;;;33.22;10.57;;;8.10;1.00;;;;;;5087492;28;20031;-50
2023/12/19 17:47:57;;;;;;;27.02;10.98;;;8.10;1.00;;;;;;5087220;28;20383;-52
2023/12/19 17:50:22;;;;;;;33.42;12.20;;;8.10;1.00;;;;;;5086961;28;20090;-57
2023/12/19 17:52:48;;;;;;;31.10;11.82;;;8.20;1.00;;;;;;5086227;28;20024;-55
2023/12/19 17:55:15;;;;;;;35.70;13.35;;;8.20;1.00;;;;;;5087171;28;20046;-62
2023/12/19 17:57:40;;;;;;;26.95;10.45;;;8.20;1.00;;;;;;5087015;28;20505;-54
2023/12/19 18:00:07;;;;;;;33.88;13.05;;;8.40;1.00;;;;;;5087027;28;20065;-61
2023/12/19 18:02:32;;;;;;;26.17;11.60;;;8.30;1.00;;;;;;5087456;28;20047;-55
2023/12/19 18:04:58;;;;;;;31.45;11.35;;;8.40;1.00;;;;;;5087079;28;20769;-49
2023/12/19 18:07:24;;;;;;;24.70;10.48;;;8.40;1.00;;;;;;5086832;28;20032;-51
2023/12/19 18:09:50;;;;;;;23.90;11.07;;;8.40;1.00;;;;;;5086806;28;20039;-48
2023/12/19 18:12:15;;;;;;;26.75;11.02;;;8.40;1.00;;;;;;5086787;28;20035;-57
2023/12/19 18:14:41;;;;;;;26.15;10.35;;;8.50;1.00;;;;;;5087041;28;20375;-54
2023/12/19 18:17:07;;;;;;;26.50;10.68;;;8.50;1.00;;;;;;5087108;28;20116;-63
2023/12/19 18:19:32;;;;;;;24.48;10.13;;;8.40;1.00;;;;;;5087079;28;20024;-56
2023/12/19 18:21:58;;;;;;;19.45;10.02;;;8.40;1.00;;;;;;5087191;28;20149;-54
2023/12/19 18:24:24;;;;;;;26.83;10.85;;;8.40;1.00;;;;;;5087114;28;20039;-59
2023/12/19 18:26:51;;;;;;;21.70;9.82;;;8.50;1.00;;;;;;5087257;28;20040;-59
2023/12/19 18:29:16;;;;;;;26.85;11.48;;;8.50;1.00;;;;;;5085389;28;20070;-58
2023/12/19 18:31:46;;;;;;;25.02;10.90;;;8.50;1.00;;;;;;5086837;28;20024;-50
2023/12/19 18:34:12;;;;;;;25.05;12.10;;;8.60;1.00;;;;;;5086557;28;20028;-51
2023/12/19 18:36:37;;;;;;;27.25;11.32;;;8.50;1.00;;;;;;5086834;28;20028;-54
2023/12/19 18:39:03;;;;;;;24.63;11.02;;;8.50;1.00;;;;;;5086861;28;20047;-65
2023/12/19 18:41:29;;;;;;;25.02;11.55;;;8.50;1.00;;;;;;5086522;28;20542;-49
2023/12/19 18:43:55;;;;;;;22.70;10.13;;;8.50;1.00;;;;;;5086743;28;20451;-52
2023/12/19 18:46:21;;;;;;;28.30;10.98;;;8.40;1.00;;;;;;5086572;28;20043;-49
2023/12/19 18:48:48;;;;;;;25.80;11.65;;;8.40;1.00;;;;;;5085844;28;20411;-55
2023/12/19 18:51:13;;;;;;;27.75;11.75;;;8.40;1.00;;;;;;5086345;28;20193;-57
2023/12/19 18:53:39;;;;;;;27.83;11.43;;;8.40;1.00;;;;;;5084813;28;20559;-56
2023/12/19 18:56:05;;;;;;;26.13;10.48;;;8.40;1.00;;;;;;5086166;28;20190;-59
2023/12/19 18:58:32;;;;;;;26.48;10.85;;;8.40;1.00;;;;;;5086214;28;20115;-56
2023/12/19 19:00:59;;;;;;;;;;;8.40;1.00;;;;;;5086765;28;20440;-57
2023/12/19 19:03:24;;;;;;;25.83;12.30;;;8.30;1.00;;;;;;5086066;28;19907;-54
2023/12/19 19:05:50;;;;;;;28.67;12.20;;;8.20;1.00;;;;;;5085648;28;20050;-55
2023/12/19 19:08:15;;;;;;;31.95;12.73;;;8.30;1.00;;;;;;5085884;28;20020;-54
2023/12/19 19:10:41;;;;;;;31.77;13.23;;;8.30;1.00;;;;;;5085853;28;20088;-54
2023/12/19 19:13:08;;;;;;;22.02;10.55;;;8.40;1.00;;;;;;5085885;28;20028;-53
2023/12/19 19:15:35;;;;;;;28.77;10.63;;;8.50;1.00;;;;;;5085900;28;20039;-59
2023/12/19 19:18:01;;;;;;;25.30;11.13;;;8.50;1.00;;;;;;5086233;28;20059;-57
2023/12/19 19:20:39;;;;;;;25.40;10.52;;;8.50;1.00;;;;;;5086346;28;20024;-53
2023/12/19 19:23:06;;;;;;;28.90;12.05;;;8.60;1.00;;;;;;5085794;28;20032;-55
2023/12/19 19:25:33;;;;;;;26.77;11.52;;;8.70;1.00;;;;;;5086099;28;20039;-53
2023/12/19 19:27:59;;;;;;;20.42;9.85;;;8.70;1.00;;;;;;5086312;28;20028;-55
2023/12/19 19:30:25;;;;;;;19.55;9.40;;;8.60;1.00;;;;;;5099826;28;20490;-62
2023/12/19 19:32:54;;;;;;;26.55;10.73;;;8.70;1.00;;;;;;5106412;28;20028;-55
2023/12/19 19:35:21;;;;;;;21.20;9.50;;;8.70;1.00;;;;;;5106374;28;20111;-51
2023/12/19 19:37:47;;;;;;;24.35;9.88;;;8.80;1.00;;;;;;5105946;28;20035;-60
2023/12/19 19:40:13;;;;;;;22.15;10.10;;;8.70;1.00;;;;;;5106289;28;20100;-61
2023/12/19 19:42:38;;;;;;;19.55;10.20;;;8.80;1.00;;;;;;5106438;28;20471;-57
2023/12/19 19:45:04;;;;;;;23.70;10.68;;;8.70;1.00;;;;;;5106131;28;20024;-47
2023/12/19 19:47:30;;;;;;;22.17;10.15;;;8.70;1.00;;;;;;5110821;28;20034;-51
2023/12/19 19:49:56;;;;;;;24.50;11.02;;;8.70;1.00;;;;;;5116232;28;20108;-55
2023/12/19 19:52:27;;;;;;;23.00;10.57;;;8.70;1.00;;;;;;5116628;28;20092;-57
2023/12/19 19:54:52;;;;;;;22.83;10.60;;;8.60;1.00;;;;;;5105743;28;20465;-52
2023/12/19 19:57:18;;;;;;;23.17;9.40;;;8.60;1.00;;;;;;5105601;28;20055;-53
2023/12/19 19:59:44;;;;;;;18.17;9.32;;;8.50;1.00;;;;;;5104954;28;20028;-52
2023/12/19 20:02:10;;;;;;;19.45;9.60;;;8.50;1.00;;;;;;5104618;28;20032;-53
2023/12/19 20:04:35;;;;;;;19.30;9.13;;;8.50;1.00;;;;;;5104942;28;20011;-59
2023/12/19 20:07:01;;;;;;;17.33;7.93;;;8.40;1.00;;;;;;5105162;28;20031;-53
2023/12/19 20:09:27;;;;;;;21.98;9.63;;;8.40;1.00;;;;;;5103886;28;20577;-54
2023/12/19 20:11:53;;;;;;;19.87;8.97;;;8.40;1.00;;;;;;5103188;28;20035;-57
2023/12/19 20:14:19;;;;;;;19.50;9.07;;;8.40;1.00;;;;;;5103417;28;20640;-57
2023/12/19 20:16:45;;;;;;;17.23;8.50;;;8.40;1.00;;;;;;5106276;28;20043;-55
2023/12/19 20:19:12;;;;;;;15.73;8.00;;;8.40;1.00;;;;;;5108848;28;20031;-55
2023/12/19 20:21:37;;;;;;;15.57;8.18;;;8.40;1.00;;;;;;5109219;28;20043;-54
2023/12/19 20:24:03;;;;;;;15.65;7.78;;;8.40;1.00;;;;;;5108822;28;20127;-54
2023/12/19 20:26:29;;;;;;;16.17;7.95;;;8.40;1.00;;;;;;5108744;28;20024;-52
2023/12/19 20:28:55;;;;;;;15.93;8.65;;;8.40;1.00;;;;;;5108459;28;20236;-54
2023/12/19 20:31:21;;;;;;;18.70;8.75;;;8.40;1.00;;;;;;5108288;28;20051;-51
2023/12/19 20:33:47;;;;;;;20.75;9.05;;;8.30;1.00;;;;;;5107695;28;20032;-55
2023/12/19 20:36:14;;;;;;;18.48;10.07;;;8.30;1.00;;;;;;5107317;28;20046;-49
2023/12/19 20:38:42;;;;;;;20.90;10.13;;;8.30;1.00;;;;;;5107976;28;20119;-57
2023/12/19 20:41:07;;;;;;;15.57;8.68;;;8.30;1.00;;;;;;5107585;28;20096;-54
2023/12/19 20:43:33;;;;;;;21.35;9.93;;;8.30;1.00;;;;;;5107357;28;20036;-52
2023/12/19 20:45:59;;;;;;;21.20;8.95;;;8.30;1.00;;;;;;5107116;28;20085;-53
2023/12/19 20:48:24;;;;;;;20.27;10.07;;;8.20;1.00;;;;;;5107506;28;20103;-56
2023/12/19 20:50:50;;;;;;;15.55;8.07;;;8.20;1.00;;;;;;5108186;28;20035;-56
2023/12/19 20:53:16;;;;;;;16.88;9.10;;;8.20;1.00;;;;;;5108876;28;20385;-56
2023/12/19 20:55:41;;;;;;;16.95;8.18;;;8.30;1.00;;;;;;5106914;28;20020;-56
2023/12/19 20:58:08;;;;;;;15.77;7.38;;;8.20;1.00;;;;;;5108395;28;20790;-55
2023/12/19 21:00:34;;;;;;;26.53;11.60;;;8.20;1.00;;;;;;5106044;28;20024;-55
2023/12/19 21:03:00;;;;;;;20.08;8.68;;;8.20;1.00;;;;;;5107516;28;20387;-58
2023/12/19 21:05:25;;;;;;;20.67;10.60;;;8.20;1.00;;;;;;5108731;28;20036;-50
2023/12/19 21:07:51;;;;;;;22.38;9.45;;;8.20;1.00;;;;;;5108233;28;20034;-55
2023/12/19 21:10:17;;;;;;;17.52;8.15;;;8.20;1.00;;;;;;5107803;28;20081;-56
2023/12/19 21:12:43;;;;;;;22.55;11.35;;;8.20;1.00;;;;;;5107122;28;20042;-53
2023/12/19 21:15:09;;;;;;;16.67;9.75;;;8.20;1.00;;;;;;5107298;28;20172;-53
2023/12/19 21:17:34;;;;;;;16.20;7.70;;;8.20;1.00;;;;;;5107079;28;20359;-61
2023/12/19 21:20:00;;;;;;;21.02;10.35;;;8.20;1.00;;;;;;5106481;28;20035;-55
2023/12/19 21:22:26;;;;;;;20.92;9.35;;;8.10;1.00;;;;;;5106100;28;20024;-56
2023/12/19 21:24:51;;;;;;;27.48;10.65;;;8.10;1.00;;;;;;5104288;28;20019;-55
2023/12/19 21:27:17;;;;;;;22.60;9.98;;;8.10;1.00;;;;;;5106645;28;20034;-52
2023/12/19 21:29:43;;;;;;;32.70;12.95;;;8.00;1.00;;;;;;5107588;28;20188;-58
2023/12/19 21:32:08;;;;;;;27.00;12.23;;;8.00;1.00;;;;;;5107354;28;20371;-54
2023/12/19 21:34:36;;;;;;;27.83;10.95;;;7.90;1.00;;;;;;5107565;28;20634;-58
2023/12/19 21:37:02;;;;;;;19.73;9.27;;;8.00;1.00;;;;;;5107918;28;20142;-51
2023/12/19 21:39:29;;;;;;;21.17;9.93;;;7.90;1.00;;;;;;5107485;28;20077;-59
2023/12/19 21:41:55;;;;;;;20.00;8.98;;;7.90;1.00;;;;;;5106225;28;20452;-53
2023/12/19 21:44:21;;;;;;;18.58;7.85;;;7.90;1.00;;;;;;5107618;28;20019;-53
2023/12/19 21:46:46;;;;;;;23.90;10.65;;;7.80;1.00;;;;;;5107816;28;20031;-57
2023/12/19 21:49:12;;;;;;;20.85;10.35;;;7.80;1.00;;;;;;5107546;28;20624;-57
2023/12/19 21:51:38;;;;;;;24.35;11.23;;;7.80;1.00;;;;;;5107417;28;20208;-58
2023/12/19 21:54:05;;;;;;;16.88;8.30;;;7.80;1.00;;;;;;5106969;28;20478;-56
2023/12/19 21:56:31;;;;;;;19.25;8.75;;;7.70;1.00;;;;;;5107078;28;20127;-57
2023/12/19 21:58:57;;;;;;;19.25;9.25;;;7.80;1.00;;;;;;5107304;28;20126;-49
2023/12/19 22:01:23;;;;;;;17.27;8.75;;;7.70;1.00;;;;;;5107259;28;20111;-54
2023/12/19 22:03:49;;;;;;;17.52;8.32;;;7.70;1.00;;;;;;5106896;28;20023;-50
2023/12/19 22:06:15;;;;;;;18.65;7.95;;;7.70;1.00;;;;;;5107450;28;20027;-54
2023/12/19 22:08:41;;;;;;;18.30;9.05;;;7.70;1.00;;;;;;5107187;28;20046;-52
2023/12/19 22:11:09;;;;;;;19.27;9.13;;;7.70;1.00;;;;;;5106500;28;20569;-54
2023/12/19 22:13:35;;;;;;;16.98;8.02;;;7.60;1.00;;;;;;5105554;28;20031;-52
2023/12/19 22:16:02;;;;;;;19.80;8.93;;;7.70;1.00;;;;;;5105399;28;20035;-61
2023/12/19 22:18:28;;;;;;;16.60;8.55;;;7.70;1.00;;;;;;5086423;28;20103;-53
2023/12/19 22:20:54;;;;;;;19.05;8.65;;;7.70;1.00;;;;;;5105125;28;20718;-52
2023/12/19 22:23:19;;;;;;;22.05;8.98;;;7.60;1.00;;;;;;5105350;28;20394;-51
2023/12/19 22:25:45;;;;;;;19.08;9.30;;;7.70;1.00;;;;;;5105850;28;20062;-49
2023/12/19 22:28:11;;;;;;;18.10;8.30;;;7.70;1.00;;;;;;5105680;28;20031;-48
2023/12/19 22:30:36;;;;;;;21.63;9.63;;;7.80;1.00;;;;;;5105383;28;20379;-59
2023/12/19 22:33:02;;;;;;;27.45;9.90;;;7.70;1.00;;;;;;5102928;28;20501;-56
2023/12/19 22:35:28;;;;;;;19.15;9.23;;;7.70;1.00;;;;;;5104989;28;20078;-53
2023/12/19 22:37:53;;;;;;;23.10;10.27;;;7.70;1.00;;;;;;5104869;28;20031;-53
2023/12/19 22:40:19;;;;;;;19.20;8.65;;;7.70;1.00;;;;;;5105334;28;20489;-50
2023/12/19 22:42:45;;;;;;;21.45;8.63;;;7.60;1.00;;;;;;5107424;28;20084;-52
2023/12/19 22:45:14;;;;;;;21.33;8.90;;;7.60;1.00;;;;;;5088697;28;20040;-52
2023/12/19 22:47:40;;;;;;;20.77;9.27;;;7.60;1.00;;;;;;5104865;28;20037;-50
2023/12/19 22:50:07;;;;;;;21.02;9.52;;;7.50;1.00;;;;;;5104991;28;20397;-55
2023/12/19 22:52:32;;;;;;;16.48;9.02;;;7.50;1.00;;;;;;5104950;28;20034;-54
2023/12/19 22:54:58;;;;;;;20.63;9.25;;;7.50;1.00;;;;;;5105191;28;20656;-50
2023/12/19 22:57:24;;;;;;;15.57;8.93;;;7.50;1.00;;;;;;5105243;28;20028;-53
2023/12/19 22:59:50;;;;;;;20.88;9.98;;;7.50;1.00;;;;;;5104296;28;20092;-55
2023/12/19 23:02:15;;;;;;;17.13;9.10;;;7.50;1.00;;;;;;5104203;28;20027;-52
2023/12/19 23:04:46;;;;;;;16.20;8.77;;;7.40;1.00;;;;;;5104005;28;20148;-52
2023/12/19 23:07:12;;;;;;;16.45;8.70;;;7.40;1.00;;;;;;5105345;28;20070;-50
2023/12/19 23:09:41;;;;;;;16.42;8.05;;;7.30;1.00;;;;;;5103977;28;20741;-53
2023/12/19 23:12:07;;;;;;;17.08;8.63;;;7.20;1.00;;;;;;5104495;28;20019;-53
2023/12/19 23:14:33;;;;;;;16.00;8.30;;;7.10;1.00;;;;;;5105324;28;20031;-54
2023/12/19 23:16:59;;;;;;;19.23;9.13;;;7.10;1.00;;;;;;5086790;28;20414;-52
2023/12/19 23:19:24;;;;;;;18.48;8.75;;;7.10;1.00;;;;;;5105099;28;20024;-58
2023/12/19 23:21:50;;;;;;;16.95;8.57;;;7.10;1.00;;;;;;5104766;28;20028;-53
2023/12/19 23:24:16;;;;;;;16.38;8.50;;;7.00;1.00;;;;;;5105373;28;20150;-54
2023/12/19 23:26:42;;;;;;;19.10;8.23;;;7.00;1.00;;;;;;5105068;28;20119;-51
2023/12/19 23:29:09;;;;;;;16.85;8.00;;;6.90;1.00;;;;;;5104171;28;20053;-54
2023/12/19 23:31:35;;;;;;;15.30;7.63;;;6.80;1.00;;;;;;5105421;28;20024;-49
2023/12/19 23:34:02;;;;;;;18.88;8.15;;;6.80;1.00;;;;;;5104987;28;20088;-52
2023/12/19 23:36:28;;;;;;;17.52;9.02;;;6.70;1.00;;;;;;5104710;28;20749;-47
2023/12/19 23:38:54;;;;;;;16.33;7.95;;;6.70;1.00;;;;;;5103708;28;20047;-52
2023/12/19 23:41:19;;;;;;;17.65;8.13;;;6.70;1.00;;;;;;5104611;28;20027;-49
2023/12/19 23:43:46;;;;;;;16.95;8.18;;;6.70;1.00;;;;;;5104845;28;20058;-49
2023/12/19 23:46:18;;;;;;;19.37;8.37;;;6.60;1.00;;;;;;5105800;28;20028;-50
2023/12/19 23:48:45;;;;;;;17.30;7.95;;;6.70;1.00;;;;;;5109493;28;20035;-51
2023/12/19 23:51:11;;;;;;;14.05;7.28;;;6.60;1.00;;;;;;5110011;28;20031;-48
2023/12/19 23:53:37;;;;;;;14.18;8.05;;;6.70;1.00;;;;;;5107249;27;20511;-55
2023/12/19 23:56:03;;;;;;;15.38;8.02;;;6.70;1.00;;;;;;5111055;27;20044;-53
2023/12/19 23:58:29;;;;;;;14.47;7.23;;;6.70;1.00;;;;;;5118580;27;20036;-52
